createdAt,value
2018-10-18T00:00:09.037Z,15.67
2018-10-18T00:03:11.917Z,15.53
2018-10-18T00:06:14.975Z,15.58
2018-10-18T00:09:17.825Z,15.53
2018-10-18T00:12:20.775Z,15.50
2018-10-18T00:15:23.691Z,15.53
2018-10-18T00:18:26.617Z,15.52
2018-10-18T00:21:29.612Z,15.36
2018-10-18T00:24:32.589Z,15.45
2018-10-18T00:27:36.071Z,15.67
2018-10-18T00:30:38.993Z,15.72
2018-10-18T00:33:41.944Z,15.80
2018-10-18T00:36:44.849Z,15.72
2018-10-18T00:39:47.788Z,15.76
2018-10-18T00:42:50.738Z,15.68
2018-10-18T00:45:53.825Z,15.81
2018-10-18T00:48:56.757Z,15.75
2018-10-18T00:51:59.716Z,15.82
2018-10-18T00:55:02.742Z,16.02
2018-10-18T00:58:05.702Z,15.85
2018-10-18T01:01:08.601Z,16.04
2018-10-18T01:04:11.560Z,16.04
2018-10-18T01:07:14.666Z,16.16
2018-10-18T01:10:17.557Z,16.22
2018-10-18T01:13:20.482Z,16.25
2018-10-18T01:16:23.382Z,16.37
2018-10-18T01:19:26.293Z,16.31
2018-10-18T01:22:29.300Z,16.38
2018-10-18T01:25:32.233Z,16.43
2018-10-18T01:28:35.180Z,16.48
2018-10-18T01:31:38.092Z,16.45
2018-10-18T01:34:40.997Z,16.44
2018-10-18T01:37:43.943Z,16.43
2018-10-18T01:40:46.887Z,16.55
2018-10-18T01:43:49.853Z,16.55
2018-10-18T01:46:53.124Z,16.57
2018-10-18T01:49:56.032Z,16.47
2018-10-18T01:52:58.947Z,16.51
2018-10-18T01:56:01.999Z,16.42
2018-10-18T01:59:04.989Z,16.41
2018-10-18T02:02:08.083Z,16.48
2018-10-18T02:05:10.969Z,16.39
2018-10-18T02:08:13.926Z,16.47
2018-10-18T02:11:16.874Z,16.37
2018-10-18T02:14:19.826Z,16.46
2018-10-18T02:17:22.738Z,16.49
2018-10-18T02:20:25.634Z,16.47
2018-10-18T02:23:28.546Z,16.52
2018-10-18T02:26:31.519Z,16.49
2018-10-18T02:29:34.425Z,16.44
2018-10-18T02:32:37.357Z,16.40
2018-10-18T02:35:40.242Z,16.38
2018-10-18T02:38:43.169Z,16.28
2018-10-18T02:41:46.155Z,16.35
2018-10-18T02:44:49.038Z,16.32
2018-10-18T02:47:52.006Z,16.35
2018-10-18T02:50:54.915Z,16.35
2018-10-18T02:53:57.893Z,16.35
2018-10-18T02:57:00.799Z,16.39
2018-10-18T03:00:04.818Z,16.36
2018-10-18T03:03:07.683Z,16.32
2018-10-18T03:06:10.714Z,16.28
2018-10-18T03:09:13.545Z,16.32
2018-10-18T03:12:16.611Z,16.35
2018-10-18T03:15:19.439Z,16.34
2018-10-18T03:18:22.532Z,16.27
2018-10-18T03:21:25.473Z,16.28
2018-10-18T03:24:28.429Z,16.22
2018-10-18T03:27:31.354Z,16.24
2018-10-18T03:30:34.383Z,16.01
2018-10-18T03:33:37.324Z,16.24
2018-10-18T03:36:40.248Z,16.28
2018-10-18T03:39:43.146Z,16.30
2018-10-18T03:42:46.084Z,16.26
2018-10-18T03:45:49.140Z,16.38
2018-10-18T03:48:52.093Z,16.37
2018-10-18T03:51:55.085Z,16.34
2018-10-18T03:54:58.022Z,16.42
2018-10-18T03:58:01.487Z,16.36
2018-10-18T04:01:04.481Z,16.35
2018-10-18T04:04:07.429Z,16.36
2018-10-18T04:07:10.433Z,16.39
2018-10-18T04:10:13.345Z,16.41
2018-10-18T04:13:16.271Z,16.41
2018-10-18T04:16:19.184Z,16.42
2018-10-18T04:19:22.085Z,16.30
2018-10-18T04:22:25.053Z,16.39
2018-10-18T04:25:27.967Z,16.34
2018-10-18T04:28:31.801Z,16.28
2018-10-18T04:31:34.692Z,16.33
2018-10-18T04:34:37.641Z,16.28
2018-10-18T04:37:40.590Z,16.30
2018-10-18T04:40:43.523Z,16.21
2018-10-18T04:43:46.434Z,16.16
2018-10-18T04:46:49.356Z,16.24
2018-10-18T04:49:52.341Z,16.30
2018-10-18T04:52:55.280Z,16.20
2018-10-18T04:55:58.236Z,16.26
2018-10-18T04:59:01.168Z,16.26
2018-10-18T05:02:04.577Z,16.23
2018-10-18T05:05:24.897Z,16.27
2018-10-18T05:08:28.249Z,16.26
2018-10-18T05:11:31.244Z,16.29
2018-10-18T05:14:34.108Z,16.23
2018-10-18T05:17:37.050Z,16.16
2018-10-18T05:20:40.048Z,16.12
2018-10-18T05:23:43.034Z,16.15
2018-10-18T05:26:45.949Z,16.20
2018-10-18T05:29:48.900Z,15.99
2018-10-18T05:32:51.833Z,16.15
2018-10-18T05:35:54.742Z,16.05
2018-10-18T05:38:57.675Z,16.06
2018-10-18T05:42:00.597Z,16.05
2018-10-18T05:45:04.321Z,15.94
2018-10-18T05:48:07.333Z,16.08
2018-10-18T05:51:10.281Z,16.12
2018-10-18T05:54:13.254Z,16.07
2018-10-18T05:57:16.153Z,15.96
2018-10-18T06:00:19.273Z,16.06
2018-10-18T06:03:22.204Z,16.07
2018-10-18T06:06:25.183Z,16.06
2018-10-18T06:09:31.875Z,15.97
2018-10-18T06:12:34.709Z,15.97
2018-10-18T06:15:37.676Z,15.96
2018-10-18T06:18:40.589Z,16.01
2018-10-18T06:21:43.510Z,16.06
2018-10-18T06:24:46.438Z,16.13
2018-10-18T06:27:49.932Z,16.25
2018-10-18T06:30:52.824Z,16.21
2018-10-18T06:33:55.712Z,16.20
2018-10-18T06:36:58.627Z,16.16
2018-10-18T06:40:01.530Z,16.17
2018-10-18T06:43:04.913Z,16.24
2018-10-18T06:46:10.741Z,16.30
2018-10-18T06:49:13.749Z,16.34
2018-10-18T06:52:16.522Z,16.31
2018-10-18T06:55:19.503Z,16.34
2018-10-18T06:58:22.472Z,16.19
2018-10-18T07:01:25.368Z,16.22
2018-10-18T07:04:28.289Z,16.30
2018-10-18T07:07:31.225Z,16.24
2018-10-18T07:10:34.161Z,16.22
2018-10-18T07:13:37.081Z,16.34
2018-10-18T07:16:39.985Z,16.37
2018-10-18T07:19:42.885Z,16.38
2018-10-18T07:22:45.819Z,16.43
2018-10-18T07:25:48.711Z,16.43
2018-10-18T07:28:51.602Z,16.40
2018-10-18T07:31:54.572Z,16.36
2018-10-18T07:34:57.623Z,16.38
2018-10-18T07:38:00.796Z,16.42
2018-10-18T07:41:03.953Z,16.38
2018-10-18T07:44:07.349Z,16.45
2018-10-18T07:47:10.455Z,16.50
2018-10-18T07:50:14.064Z,16.48
2018-10-18T07:53:17.516Z,16.51
2018-10-18T07:56:20.461Z,16.52
2018-10-18T07:59:23.379Z,16.61
2018-10-18T08:02:26.298Z,16.61
2018-10-18T08:05:29.245Z,16.44
2018-10-18T08:08:32.165Z,16.30
2018-10-18T08:11:35.135Z,16.45
2018-10-18T08:14:38.172Z,16.38
2018-10-18T08:17:41.731Z,16.35
2018-10-18T08:20:44.617Z,16.37
2018-10-18T08:23:47.554Z,16.40
2018-10-18T08:26:50.509Z,16.37
2018-10-18T08:29:53.495Z,16.40
2018-10-18T08:32:56.453Z,16.31
2018-10-18T08:35:59.429Z,16.34
2018-10-18T08:39:02.595Z,16.35
2018-10-18T08:42:05.753Z,16.35
2018-10-18T08:45:09.799Z,16.43
2018-10-18T08:48:12.716Z,16.49
2018-10-18T08:51:15.698Z,16.52
2018-10-18T08:54:18.695Z,16.60
2018-10-18T08:57:21.659Z,16.52
2018-10-18T09:00:24.722Z,16.56
2018-10-18T09:03:27.788Z,16.69
2018-10-18T09:06:30.707Z,16.67
2018-10-18T09:09:33.633Z,16.63
2018-10-18T09:12:36.627Z,16.61
2018-10-18T09:15:39.598Z,16.69
2018-10-18T09:18:42.518Z,16.75
2018-10-18T09:21:45.456Z,16.68
2018-10-18T09:24:48.498Z,16.68
2018-10-18T09:27:51.506Z,16.73
2018-10-18T09:30:54.501Z,16.63
2018-10-18T09:33:57.424Z,16.61
2018-10-18T09:37:00.396Z,16.81
2018-10-18T09:40:03.713Z,16.74
2018-10-18T09:43:06.736Z,16.79
2018-10-18T09:46:09.597Z,16.91
2018-10-18T09:49:12.640Z,16.91
2018-10-18T09:52:15.494Z,16.82
2018-10-18T09:55:18.674Z,16.79
2018-10-18T09:58:21.501Z,16.83
2018-10-18T10:01:30.062Z,16.90
2018-10-18T10:04:33.043Z,16.86
2018-10-18T10:07:36.068Z,16.89
2018-10-18T10:10:38.962Z,17.06
2018-10-18T10:13:41.969Z,17.10
2018-10-18T10:16:44.929Z,17.07
2018-10-18T10:19:47.909Z,17.01
2018-10-18T10:22:50.869Z,17.15
2018-10-18T10:25:53.805Z,17.08
2018-10-18T10:28:56.750Z,17.16
2018-10-18T10:31:59.658Z,17.20
2018-10-18T10:35:02.787Z,17.38
2018-10-18T10:38:05.752Z,17.60
2018-10-18T10:41:08.744Z,17.57
2018-10-18T10:44:11.704Z,17.41
2018-10-18T10:47:14.646Z,17.18
2018-10-18T10:50:17.684Z,17.20
2018-10-18T10:53:20.596Z,17.19
2018-10-18T10:56:23.546Z,17.14
2018-10-18T10:59:26.519Z,17.22
2018-10-18T11:02:29.550Z,17.26
2018-10-18T11:05:32.542Z,17.34
2018-10-18T11:08:35.498Z,17.44
2018-10-18T11:11:38.455Z,17.37
2018-10-18T11:14:41.488Z,17.34
2018-10-18T11:17:44.433Z,17.27
2018-10-18T11:20:47.353Z,17.74
2018-10-18T11:23:50.249Z,18.12
2018-10-18T11:26:53.202Z,18.30
2018-10-18T11:29:56.158Z,18.39
2018-10-18T11:32:59.073Z,18.69
2018-10-18T11:36:02.155Z,18.63
2018-10-18T11:39:07.501Z,18.55
2018-10-18T11:42:10.459Z,18.29
2018-10-18T11:45:13.433Z,17.91
2018-10-18T11:48:16.591Z,17.74
2018-10-18T11:51:19.522Z,18.16
2018-10-18T11:54:22.477Z,18.10
2018-10-18T11:57:25.437Z,18.13
2018-10-18T12:00:28.474Z,18.12
2018-10-18T12:03:31.371Z,18.04
2018-10-18T12:06:34.525Z,17.85
2018-10-18T12:09:37.401Z,17.82
2018-10-18T12:12:40.305Z,17.78
2018-10-18T12:15:43.286Z,17.72
2018-10-18T12:18:46.180Z,17.79
2018-10-18T12:21:49.149Z,17.77
2018-10-18T12:24:52.261Z,17.80
2018-10-18T12:27:55.296Z,17.87
2018-10-18T12:30:58.265Z,18.19
2018-10-18T12:34:01.141Z,18.36
2018-10-18T12:37:04.229Z,18.38
2018-10-18T12:40:08.336Z,18.26
2018-10-18T12:43:11.255Z,18.21
2018-10-18T12:46:14.199Z,18.17
2018-10-18T12:49:17.148Z,18.15
2018-10-18T12:52:20.152Z,18.03
2018-10-18T12:55:23.101Z,17.99
2018-10-18T12:58:26.098Z,17.97
2018-10-18T13:01:29.049Z,17.89
2018-10-18T13:04:32.026Z,18.23
2018-10-18T13:07:34.950Z,18.30
2018-10-18T13:10:37.988Z,18.66
2018-10-18T13:13:41.141Z,18.57
2018-10-18T13:16:44.191Z,18.13
2018-10-18T13:19:47.076Z,17.92
2018-10-18T13:22:50.099Z,17.80
2018-10-18T13:25:53.130Z,17.75
2018-10-18T13:28:56.116Z,17.63
2018-10-18T13:31:59.221Z,17.71
2018-10-18T13:35:02.230Z,17.92
2018-10-18T13:38:05.500Z,19.45
2018-10-18T13:41:08.458Z,18.33
2018-10-18T13:44:11.724Z,17.98
2018-10-18T13:47:14.658Z,17.86
2018-10-18T13:50:17.655Z,17.83
2018-10-18T13:53:21.574Z,17.93
2018-10-18T13:56:24.831Z,17.95
2018-10-18T13:59:45.140Z,17.86
2018-10-18T14:02:48.299Z,17.76
2018-10-18T14:05:51.294Z,17.75
2018-10-18T14:08:54.292Z,17.71
2018-10-18T14:11:57.258Z,17.75
2018-10-18T14:15:00.217Z,17.74
2018-10-18T14:18:03.253Z,17.77
2018-10-18T14:21:06.891Z,17.73
2018-10-18T14:24:09.862Z,17.66
2018-10-18T14:27:12.825Z,17.73
2018-10-18T14:30:15.845Z,17.73
2018-10-18T14:33:18.799Z,17.81
2018-10-18T14:36:21.740Z,17.69
2018-10-18T14:39:24.682Z,17.70
2018-10-18T14:42:27.569Z,19.12
2018-10-18T14:45:30.551Z,18.27
2018-10-18T14:48:33.490Z,18.00
2018-10-18T14:51:36.504Z,17.81
2018-10-18T14:54:39.494Z,17.75
2018-10-18T14:57:49.161Z,17.69
2018-10-18T15:00:52.153Z,17.73
2018-10-18T15:03:55.184Z,17.73
2018-10-18T15:06:58.106Z,17.72
2018-10-18T15:10:01.073Z,17.60
2018-10-18T15:13:04.463Z,17.49
2018-10-18T15:16:07.402Z,17.41
2018-10-18T15:19:10.401Z,17.38
2018-10-18T15:22:13.382Z,17.39
2018-10-18T15:25:16.476Z,17.31
2018-10-18T15:28:19.330Z,17.32
2018-10-18T15:31:22.328Z,17.27
2018-10-18T15:34:25.362Z,17.36
2018-10-18T15:37:28.297Z,17.26
2018-10-18T15:40:31.241Z,17.21
2018-10-18T15:43:34.134Z,17.26
2018-10-18T15:46:37.452Z,17.06
2018-10-18T15:49:40.364Z,17.10
2018-10-18T15:52:43.326Z,17.04
2018-10-18T15:55:46.272Z,17.17
2018-10-18T15:58:49.199Z,17.17
2018-10-18T16:01:52.133Z,17.01
2018-10-18T16:04:55.051Z,17.04
2018-10-18T16:07:57.985Z,16.99
2018-10-18T16:11:01.008Z,19.15
2018-10-18T16:14:03.908Z,17.64
2018-10-18T16:17:07.029Z,17.23
2018-10-18T16:20:10.282Z,17.13
2018-10-18T16:23:13.190Z,17.01
2018-10-18T16:26:16.162Z,16.88
2018-10-18T16:29:19.179Z,16.84
2018-10-18T16:32:22.020Z,16.91
2018-10-18T16:35:24.981Z,16.85
2018-10-18T16:38:27.913Z,16.83
2018-10-18T16:41:31.048Z,16.96
2018-10-18T16:44:33.945Z,16.86
2018-10-18T16:47:36.959Z,16.91
2018-10-18T16:50:39.931Z,16.82
2018-10-18T16:53:42.863Z,16.85
2018-10-18T16:56:45.773Z,16.78
2018-10-18T16:59:48.676Z,16.70
2018-10-18T17:02:51.581Z,16.71
2018-10-18T17:05:54.575Z,16.68
2018-10-18T17:08:57.488Z,16.64
2018-10-18T17:12:00.539Z,16.64
2018-10-18T17:15:03.850Z,16.59
2018-10-18T17:18:06.823Z,16.42
2018-10-18T17:21:09.788Z,16.45
2018-10-18T17:24:12.751Z,16.54
2018-10-18T17:27:15.883Z,16.62
2018-10-18T17:30:18.679Z,16.49
2018-10-18T17:33:21.532Z,16.30
2018-10-18T17:36:24.903Z,16.34
2018-10-18T17:39:27.825Z,16.52
2018-10-18T17:42:30.753Z,16.33
2018-10-18T17:45:33.764Z,16.31
2018-10-18T17:48:36.733Z,16.49
2018-10-18T17:51:39.720Z,16.45
2018-10-18T17:54:42.683Z,16.45
2018-10-18T17:57:45.664Z,16.30
2018-10-18T18:00:48.674Z,16.30
2018-10-18T18:03:51.812Z,16.34
2018-10-18T18:06:54.793Z,16.41
2018-10-18T18:09:57.755Z,16.11
2018-10-18T18:13:00.669Z,16.20
2018-10-18T18:16:04.881Z,16.12
2018-10-18T18:19:07.889Z,16.13
2018-10-18T18:22:10.892Z,16.29
2018-10-18T18:25:13.774Z,16.25
2018-10-18T18:28:16.706Z,16.33
2018-10-18T18:31:19.666Z,16.19
2018-10-18T18:34:22.621Z,16.24
2018-10-18T18:37:25.620Z,16.22
2018-10-18T18:40:28.537Z,16.45
2018-10-18T18:43:31.752Z,16.31
2018-10-18T18:46:34.750Z,16.15
2018-10-18T18:49:37.696Z,16.21
2018-10-18T18:52:40.661Z,16.30
2018-10-18T18:55:43.624Z,16.18
2018-10-18T18:58:46.574Z,16.17
2018-10-18T19:01:49.477Z,16.11
2018-10-18T19:04:52.465Z,16.18
2018-10-18T19:07:55.426Z,16.14
2018-10-18T19:10:58.358Z,16.20
2018-10-18T19:14:01.251Z,16.28
2018-10-18T19:17:04.530Z,16.35
2018-10-18T19:20:07.569Z,16.19
2018-10-18T19:23:10.743Z,16.15
2018-10-18T19:26:13.744Z,16.13
2018-10-18T19:29:16.614Z,16.36
2018-10-18T19:32:19.582Z,16.18
2018-10-18T19:35:22.522Z,16.15
2018-10-18T19:38:25.527Z,16.06
2018-10-18T19:41:28.440Z,16.19
2018-10-18T19:44:31.387Z,16.28
2018-10-18T19:47:34.354Z,15.95
2018-10-18T19:50:37.322Z,16.08
2018-10-18T19:53:40.306Z,16.27
2018-10-18T19:56:43.215Z,16.09
2018-10-18T19:59:46.111Z,16.09
2018-10-18T20:02:49.042Z,16.04
2018-10-18T20:05:51.978Z,15.96
2018-10-18T20:08:54.949Z,16.00
2018-10-18T20:11:57.887Z,15.89
2018-10-18T20:15:01.006Z,15.89
2018-10-18T20:18:03.997Z,15.98
2018-10-18T20:21:07.312Z,15.96
2018-10-18T20:24:10.529Z,15.97
2018-10-18T20:27:13.487Z,16.04
2018-10-18T20:30:16.502Z,15.81
2018-10-18T20:33:19.445Z,16.05
2018-10-18T20:36:22.411Z,15.72
2018-10-18T20:39:25.356Z,15.91
2018-10-18T20:42:28.479Z,15.95
2018-10-18T20:45:32.211Z,16.07
2018-10-18T20:48:35.225Z,15.93
2018-10-18T20:51:38.187Z,15.88
2018-10-18T20:54:41.134Z,16.03
2018-10-18T20:57:44.074Z,15.78
2018-10-18T21:00:47.070Z,15.82
2018-10-18T21:03:50.188Z,15.82
2018-10-18T21:06:53.140Z,15.85
2018-10-18T21:09:56.098Z,15.87
2018-10-18T21:12:59.791Z,15.92
2018-10-18T21:16:02.850Z,15.89
2018-10-18T21:19:05.872Z,15.95
2018-10-18T21:22:08.826Z,15.91
2018-10-18T21:25:12.176Z,15.90
2018-10-18T21:28:15.136Z,15.96
2018-10-18T21:31:18.077Z,15.86
2018-10-18T21:34:21.118Z,15.89
2018-10-18T21:37:24.112Z,15.85
2018-10-18T21:40:27.073Z,16.00
2018-10-18T21:43:30.018Z,15.94
2018-10-18T21:46:32.974Z,15.83
2018-10-18T21:49:36.014Z,15.78
2018-10-18T21:52:39.057Z,15.84
2018-10-18T21:55:42.029Z,15.94
2018-10-18T21:58:44.931Z,15.85
2018-10-18T22:01:47.914Z,15.76
2018-10-18T22:04:50.833Z,15.75
2018-10-18T22:07:53.804Z,15.84
2018-10-18T22:10:56.747Z,15.84
2018-10-18T22:13:59.660Z,15.88
2018-10-18T22:17:02.669Z,15.80
2018-10-18T22:20:07.256Z,15.77
2018-10-18T22:23:10.327Z,15.71
2018-10-18T22:26:13.227Z,15.80
2018-10-18T22:29:16.316Z,15.72
2018-10-18T22:32:19.271Z,15.77
2018-10-18T22:35:22.223Z,15.79
2018-10-18T22:38:25.170Z,15.75
2018-10-18T22:41:28.185Z,15.77
2018-10-18T22:44:31.138Z,15.70
2018-10-18T22:47:34.093Z,15.78
2018-10-18T22:50:37.014Z,15.63
2018-10-18T22:53:40.073Z,15.71
2018-10-18T22:56:43.037Z,15.69
2018-10-18T22:59:46.012Z,15.64
2018-10-18T23:02:49.044Z,15.57
2018-10-18T23:05:52.035Z,15.59
2018-10-18T23:08:54.994Z,15.68
2018-10-18T23:11:57.935Z,15.67
2018-10-18T23:15:00.880Z,15.76
2018-10-18T23:18:04.248Z,15.71
2018-10-18T23:21:07.232Z,15.75
2018-10-18T23:24:10.160Z,15.66
2018-10-18T23:27:12.716Z,15.61
2018-10-18T23:30:15.580Z,15.61
2018-10-18T23:33:18.522Z,15.45
2018-10-18T23:36:21.413Z,15.63
2018-10-18T23:39:24.337Z,15.57
2018-10-18T23:42:27.305Z,15.57
2018-10-18T23:45:30.230Z,15.69
2018-10-18T23:48:33.142Z,15.55
2018-10-18T23:51:36.154Z,15.54
2018-10-18T23:54:39.118Z,15.62
2018-10-18T23:57:42.118Z,15.54
